Time;durP1;ratioP1;P1;durP2;ratioP2;P2;SDS_P1;SDS_P2;PMS_P1;PMS_P2;Temp;Humidity;BMP_temperature;BMP_pressure;BME280_temperature;BME280_humidity;BME280_pressure;Samples;Min_cycle;Max_cycle;Signal;HPM_P1;HPM_P2
2022/07/31 00:02:19;;;;;;;33.42;18.92;;;;;;;16.31;100.00;101337.19;5016299;28;20060;-74
2022/07/31 00:04:44;;;;;;;33.10;19.85;;;;;;;16.19;100.00;101329.56;5020820;28;20069;-74
2022/07/31 00:07:10;;;;;;;30.20;18.57;;;;;;;16.18;100.00;101332.44;5018665;28;20168;-74
2022/07/31 00:09:36;;;;;;;28.70;17.75;;;;;;;16.18;100.00;101327.06;5018424;28;20034;-72
2022/07/31 00:12:02;;;;;;;38.65;19.65;;;;;;;16.18;100.00;101324.38;5017435;28;20025;-74
2022/07/31 00:14:28;;;;;;;28.25;18.23;;;;;;;16.09;100.00;101320.09;5002530;28;20033;-74
2022/07/31 00:16:54;;;;;;;28.53;19.30;;;;;;;16.10;100.00;101321.75;5000928;28;20048;-74
2022/07/31 00:19:19;;;;;;;26.33;18.75;;;;;;;16.12;100.00;101319.72;5017450;28;20064;-74
2022/07/31 00:21:44;;;;;;;29.77;20.00;;;;;;;16.05;100.00;101316.91;5019023;28;20471;-74
2022/07/31 00:24:10;;;;;;;29.50;17.73;;;;;;;16.08;100.00;101318.41;5016498;28;20140;-73
2022/07/31 00:26:35;;;;;;;27.83;18.37;;;;;;;16.07;100.00;101327.50;5021379;28;20026;-73
2022/07/31 00:29:01;;;;;;;25.67;17.20;;;;;;;15.98;100.00;101313.28;5017877;28;20080;-75
2022/07/31 00:31:26;;;;;;;29.97;17.00;;;;;;;15.99;100.00;101312.25;5018453;28;20561;-74
2022/07/31 00:33:52;;;;;;;30.92;19.40;;;;;;;15.98;100.00;101314.13;5022199;28;20503;-73
2022/07/31 00:36:17;;;;;;;26.63;17.57;;;;;;;15.91;100.00;101310.50;5000830;28;20596;-73
2022/07/31 00:38:42;;;;;;;28.80;16.87;;;;;;;15.92;100.00;101314.88;5015152;28;20038;-73
2022/07/31 00:41:08;;;;;;;28.47;18.83;;;;;;;15.93;100.00;101303.06;5015664;28;20029;-74
2022/07/31 00:43:34;;;;;;;35.03;19.58;;;;;;;15.95;100.00;101309.09;5020849;28;20029;-74
2022/07/31 00:46:00;;;;;;;;;;;;;;;15.90;100.00;101292.69;5016583;28;20088;-73
2022/07/31 00:48:26;;;;;;;;;;;;;;;15.94;100.00;101293.97;5002120;28;19917;-74
2022/07/31 00:50:51;;;;;;;25.83;15.77;;;;;;;15.89;100.00;101295.53;5002062;28;19913;-75
2022/07/31 00:53:17;;;;;;;32.33;19.73;;;;;;;15.87;100.00;101287.63;5016784;28;20095;-73
2022/07/31 00:55:42;;;;;;;32.57;19.80;;;;;;;15.86;100.00;101279.75;5016528;28;20038;-74
2022/07/31 00:58:08;;;;;;;30.77;19.27;;;;;;;15.87;100.00;101284.94;5001307;28;20030;-73
2022/07/31 01:00:34;;;;;;;31.23;18.83;;;;;;;15.87;100.00;101284.94;5019209;28;20030;-73
2022/07/31 01:02:59;;;;;;;33.27;20.20;;;;;;;15.90;100.00;101279.22;5015024;28;20045;-74
2022/07/31 01:05:24;;;;;;;32.50;21.10;;;;;;;15.86;100.00;101277.91;5018041;28;20493;-74
2022/07/31 01:07:50;;;;;;;34.17;21.60;;;;;;;15.84;100.00;101277.25;5017107;28;20029;-73
2022/07/31 01:10:31;;;;;;;28.77;19.70;;;;;;;15.84;100.00;101274.56;5018100;28;20024;-73
2022/07/31 01:13:04;;;;;;;44.25;24.90;;;;;;;15.77;100.00;101271.75;5003980;28;20406;-73
2022/07/31 01:15:30;;;;;;;38.47;25.48;;;;;;;15.76;100.00;101269.28;4998864;28;20048;-73
2022/07/31 01:17:57;;;;;;;40.45;25.25;;;;;;;15.73;100.00;101273.16;5001700;28;20026;-74
2022/07/31 01:20:24;;;;;;;43.67;23.58;;;;;;;15.81;100.00;101281.16;5020104;28;20379;-73
2022/07/31 01:23:19;;;;;;;38.95;23.55;;;;;;;15.85;100.00;101278.94;5000560;28;20059;-73
2022/07/31 01:26:20;;;;;;;46.38;25.27;;;;;;;15.90;100.00;101271.13;5013909;28;20498;-74
2022/07/31 01:29:13;;;;;;;50.13;27.02;;;;;;;15.90;100.00;101273.81;5018042;28;20033;-74
2022/07/31 01:31:46;;;;;;;60.25;32.42;;;;;;;15.88;100.00;101261.56;4994481;28;20084;-73
2022/07/31 01:34:24;;;;;;;57.42;30.10;;;;;;;15.94;100.00;101268.88;5015319;28;20065;-73
2022/07/31 01:36:58;;;;;;;66.20;32.88;;;;;;;15.98;100.00;101265.66;5001629;28;20505;-73
2022/07/31 01:39:24;;;;;;;58.95;31.52;;;;;;;15.95;100.00;101268.72;5016638;28;20057;-73
2022/07/31 01:41:52;;;;;;;52.30;31.02;;;;;;;16.00;100.00;101271.69;5017726;28;20071;-73
2022/07/31 01:44:19;;;;;;;54.83;29.80;;;;;;;15.98;100.00;101264.81;4999711;28;20035;-74
2022/07/31 01:46:46;;;;;;;61.08;31.90;;;;;;;16.00;100.00;101258.22;4998039;28;20018;-73
2022/07/31 01:49:17;;;;;;;57.33;31.85;;;;;;;15.96;100.00;101256.09;5015358;28;20049;-73
2022/07/31 01:51:46;;;;;;;60.40;34.33;;;;;;;15.89;100.00;101258.69;5001462;28;20533;-73
2022/07/31 01:54:14;;;;;;;55.03;29.77;;;;;;;15.94;100.00;101261.66;4995456;28;20040;-73
2022/07/31 01:56:42;;;;;;;50.95;28.92;;;;;;;16.00;100.00;101260.91;5002840;28;20048;-73
2022/07/31 01:59:09;;;;;;;50.42;30.00;;;;;;;15.85;100.00;101252.00;4996756;28;20028;-75
2022/07/31 02:01:42;;;;;;;49.75;29.33;;;;;;;15.93;100.00;101259.16;5018949;28;20033;-72
2022/07/31 02:04:09;;;;;;;56.05;30.77;;;;;;;15.82;100.00;101252.34;5018566;28;20033;-73
2022/07/31 02:06:35;;;;;;;55.60;31.48;;;;;;;15.82;100.00;101255.88;5013612;28;20022;-73
2022/07/31 02:09:01;;;;;;;50.58;29.90;;;;;;;15.83;100.00;101248.66;5015570;28;20095;-74
2022/07/31 02:11:27;;;;;;;60.38;31.75;;;;;;;15.78;100.00;101245.66;5018598;28;20124;-74
2022/07/31 02:13:55;;;;;;;52.45;29.88;;;;;;;15.79;100.00;101247.34;5015123;28;20104;-74
2022/07/31 02:16:23;;;;;;;64.32;33.00;;;;;;;15.80;100.00;101247.19;5001691;28;20475;-73
2022/07/31 02:18:58;;;;;;;61.03;33.00;;;;;;;15.75;100.00;101243.34;5017013;28;20039;-74
2022/07/31 02:21:25;;;;;;;58.95;30.95;;;;;;;15.77;100.00;101239.44;5014154;28;20034;-73
2022/07/31 02:23:52;;;;;;;51.70;30.67;;;;;;;15.80;100.00;101239.09;5013688;28;20057;-75
2022/07/31 02:26:18;;;;;;;;;;;;;;;15.78;100.00;101234.91;4999610;28;20034;-73
2022/07/31 02:28:45;;;;;;;;;;;;;;;15.80;100.00;101232.84;5002392;28;19971;-74
2022/07/31 02:31:13;;;;;;;46.38;29.27;;;;;;;15.81;100.00;101230.00;5013885;28;20400;-76
2022/07/31 02:33:44;;;;;;;55.97;28.75;;;;;;;15.83;100.00;101233.34;5016896;28;20014;-74
2022/07/31 02:36:12;;;;;;;61.58;31.90;;;;;;;15.80;100.00;101235.56;5016099;28;20506;-74
2022/07/31 02:38:39;;;;;;;45.33;28.83;;;;;;;15.87;100.00;101233.78;5018031;28;20022;-73
2022/07/31 02:41:06;;;;;;;44.22;28.52;;;;;;;15.88;100.00;101231.97;5018252;28;20120;-75
2022/07/31 02:43:34;;;;;;;52.20;28.13;;;;;;;15.90;100.00;101236.13;5013587;28;20503;-74
2022/07/31 02:46:11;;;;;;;49.72;29.88;;;;;;;15.91;100.00;101229.72;5015755;28;20084;-74
2022/07/31 02:48:37;;;;;;;50.33;28.35;;;;;;;15.89;100.00;101230.91;4993808;28;20217;-74
2022/07/31 02:51:07;;;;;;;42.42;28.15;;;;;;;15.84;100.00;101223.41;5012189;28;20029;-73
2022/07/31 02:53:33;;;;;;;;;;;;;;;15.81;100.00;101223.78;5018991;28;20501;-73
2022/07/31 02:56:03;;;;;;;54.13;30.63;;;;;;;15.76;100.00;101226.19;5002721;28;19913;-75
2022/07/31 02:58:31;;;;;;;54.30;30.80;;;;;;;15.76;100.00;101232.41;5012948;28;20037;-74
2022/07/31 03:01:00;;;;;;;50.03;30.30;;;;;;;15.74;100.00;101244.38;4996272;28;20095;-75
2022/07/31 03:03:26;;;;;;;51.17;30.00;;;;;;;15.81;100.00;101240.75;5016110;28;20036;-74
2022/07/31 03:05:52;;;;;;;51.20;30.13;;;;;;;15.72;100.00;101236.47;5017071;28;20021;-74
2022/07/31 03:08:17;;;;;;;51.70;31.40;;;;;;;15.75;100.00;101235.28;5018120;28;20426;-74
2022/07/31 03:10:46;;;;;;;51.97;29.20;;;;;;;15.73;100.00;101240.88;5002508;28;20264;-73
2022/07/31 03:13:12;;;;;;;46.83;28.85;;;;;;;15.71;100.00;101232.13;5015421;28;20426;-75
2022/07/31 03:15:39;;;;;;;;;;;;;;;15.79;100.00;101252.75;5013761;28;20022;-75
2022/07/31 03:18:06;;;;;;;52.85;30.25;;;;;;;15.74;100.00;101239.84;5012996;28;19919;-74
2022/07/31 03:20:35;;;;;;;49.90;29.67;;;;;;;15.76;100.00;101235.09;5000375;28;20041;-74
2022/07/31 03:23:01;;;;;;;43.77;28.60;;;;;;;15.80;100.00;101233.72;5000257;28;20072;-74
2022/07/31 03:25:27;;;;;;;55.08;30.38;;;;;;;15.78;100.00;101232.22;4996135;28;20103;-74
2022/07/31 03:27:52;;;;;;;47.60;29.30;;;;;;;15.69;100.00;101231.44;5016434;28;20044;-74
2022/07/31 03:30:23;;;;;;;47.77;30.50;;;;;;;15.67;100.00;101227.28;5020735;28;20037;-74
2022/07/31 03:32:50;;;;;;;45.92;29.25;;;;;;;15.67;100.00;101227.28;5023390;28;20057;-75
2022/07/31 03:35:16;;;;;;;41.75;25.58;;;;;;;15.67;100.00;101221.88;4997257;28;20034;-75
2022/07/31 03:37:42;;;;;;;42.97;26.52;;;;;;;15.56;100.00;101221.31;4999505;28;20029;-74
2022/07/31 03:40:09;;;;;;;48.83;29.35;;;;;;;15.50;100.00;101216.66;4997902;28;20458;-75
2022/07/31 03:42:34;;;;;;;44.40;28.02;;;;;;;15.54;100.00;101220.66;5001563;28;20112;-75
2022/07/31 03:45:01;;;;;;;49.77;29.00;;;;;;;15.59;100.00;101215.56;5015259;28;20171;-75
2022/07/31 03:47:27;;;;;;;47.45;29.55;;;;;;;15.58;100.00;101219.25;5017530;28;20029;-73
2022/07/31 03:49:53;;;;;;;51.78;28.58;;;;;;;15.60;100.00;101214.53;5013958;28;20014;-73
2022/07/31 03:52:18;;;;;;;45.70;28.20;;;;;;;15.69;100.00;101226.06;5000099;28;20042;-75
2022/07/31 03:54:44;;;;;;;52.13;30.70;;;;;;;15.63;100.00;101210.63;5015227;28;20148;-75
2022/07/31 03:57:15;;;;;;;47.45;28.20;;;;;;;15.69;100.00;101209.91;5015841;28;20038;-75
2022/07/31 03:59:42;;;;;;;46.38;27.20;;;;;;;15.71;100.00;101215.13;5018901;28;20052;-75
2022/07/31 04:02:09;;;;;;;45.28;26.98;;;;;;;15.70;100.00;101214.28;5013435;28;20386;-75
2022/07/31 04:04:42;;;;;;;41.40;25.98;;;;;;;15.79;100.00;101225.81;5019803;28;20037;-75
2022/07/31 04:07:07;;;;;;;50.97;26.90;;;;;;;15.82;100.00;101225.44;4997167;28;20475;-74
2022/07/31 04:09:33;;;;;;;44.03;27.83;;;;;;;15.78;100.00;101230.38;5019940;28;20104;-73
2022/07/31 04:12:00;;;;;;;44.55;27.33;;;;;;;15.70;100.00;101214.28;5016125;28;20033;-75
2022/07/31 04:14:25;;;;;;;48.50;28.47;;;;;;;15.77;100.00;101222.47;5019039;28;20137;-74
2022/07/31 04:16:50;;;;;;;51.80;28.47;;;;;;;15.80;100.00;101219.41;5020031;28;20068;-74
2022/07/31 04:19:16;;;;;;;55.70;29.27;;;;;;;15.81;100.00;101218.41;5011291;28;20087;-73
2022/07/31 04:21:41;;;;;;;47.30;31.47;;;;;;;15.77;100.00;101217.09;5020794;28;20052;-73
2022/07/31 04:24:07;;;;;;;45.67;28.67;;;;;;;15.84;100.00;101218.00;5018255;28;20057;-75
2022/07/31 04:27:03;;;;;;;55.63;31.13;;;;;;;15.80;100.00;101212.19;5014697;28;20132;-75
2022/07/31 04:29:38;;;;;;;;;;;;;;;15.80;100.00;101217.56;5003689;28;20037;-75
2022/07/31 04:32:03;;;;;;;;;;;;;;;15.88;100.00;101213.09;5016137;28;20305;-73
2022/07/31 04:34:38;;;;;;;44.22;26.08;;;;;;;15.83;100.00;101221.75;5021052;28;19916;-75
2022/07/31 04:37:03;;;;;;;46.22;28.92;;;;;;;15.85;100.00;101214.31;5017889;28;20033;-75
2022/07/31 04:39:29;;;;;;;45.17;25.90;;;;;;;15.92;100.00;101211.69;4999240;28;20037;-74
2022/07/31 04:41:56;;;;;;;52.08;27.02;;;;;;;15.87;100.00;101212.25;5016803;28;20041;-72
2022/07/31 04:44:21;;;;;;;45.33;25.30;;;;;;;16.07;100.00;101217.09;5001418;28;20026;-73
2022/07/31 04:46:51;;;;;;;42.47;26.67;;;;;;;16.17;100.00;101212.25;5017085;28;20030;-73
2022/07/31 04:49:16;;;;;;;40.53;24.70;;;;;;;16.16;100.00;101210.59;5002071;28;20032;-74
2022/07/31 04:51:42;;;;;;;35.88;21.95;;;;;;;16.29;100.00;101199.94;5004252;28;20053;-74
2022/07/31 04:54:09;;;;;;;38.77;22.30;;;;;;;16.33;100.00;101200.41;4999523;28;20021;-75
2022/07/31 04:56:40;;;;;;;36.70;22.77;;;;;;;16.53;100.00;101200.63;5018398;28;20028;-74
2022/07/31 04:59:15;;;;;;;35.30;21.33;;;;;;;16.77;100.00;101200.28;5018035;28;20418;-74
2022/07/31 05:01:45;;;;;;;29.13;19.60;;;;;;;16.73;100.00;101190.06;5003906;28;20021;-75
2022/07/31 05:04:12;;;;;;;30.05;19.35;;;;;;;16.59;100.00;101189.91;5001182;28;20598;-75
2022/07/31 05:06:40;;;;;;;36.00;21.58;;;;;;;16.58;100.00;101196.34;4998580;28;20025;-74
2022/07/31 05:09:08;;;;;;;33.45;20.15;;;;;;;16.52;100.00;101202.50;5014600;28;20037;-73
2022/07/31 05:11:34;;;;;;;31.35;19.85;;;;;;;16.57;100.00;101201.91;5016859;28;20024;-74
2022/07/31 05:14:02;;;;;;;31.80;20.13;;;;;;;16.48;100.00;101206.59;5015572;28;20092;-75
2022/07/31 05:16:29;;;;;;;35.17;20.90;;;;;;;16.50;100.00;101217.19;5003453;28;20021;-75
2022/07/31 05:18:56;;;;;;;35.17;22.58;;;;;;;16.50;100.00;101222.56;5016561;28;20036;-74
2022/07/31 05:21:42;;;;;;;34.42;21.27;;;;;;;16.41;100.00;101219.16;5017569;28;20035;-75
2022/07/31 05:24:33;;;;;;;35.08;22.42;;;;;;;16.34;100.00;101227.19;5014732;28;20083;-75
2022/07/31 05:27:07;;;;;;;31.95;21.42;;;;;;;16.44;100.00;101227.72;5001430;28;20033;-75
2022/07/31 05:29:33;;;;;;;30.25;20.52;;;;;;;16.68;100.00;101221.13;5013996;28;20026;-74
2022/07/31 05:31:59;;;;;;;31.70;19.90;;;;;;;16.91;100.00;101216.63;5016594;28;20028;-74
2022/07/31 05:34:25;;;;;;;35.65;20.52;;;;;;;17.38;100.00;101209.75;5017198;28;20937;-73
2022/07/31 05:36:51;;;;;;;25.90;16.67;;;;;;;17.67;100.00;101190.63;5016128;28;20121;-73
2022/07/31 05:39:17;;;;;;;;;;;;;;;18.49;100.00;101190.81;5019400;28;20375;-73
2022/07/31 05:42:01;;;;;;;21.95;17.33;;;;;;;17.97;100.00;101155.31;5014510;28;19920;-73
2022/07/31 05:44:53;;;;;;;21.58;16.63;;;;;;;18.70;100.00;101168.19;5011267;28;20120;-75
2022/07/31 05:47:18;;;;;;;24.27;15.00;;;;;;;19.60;100.00;101153.19;5019050;28;20822;-75
2022/07/31 05:49:43;;;;;;;20.30;13.63;;;;;;;20.63;100.00;101103.53;5015196;28;20453;-74
2022/07/31 05:52:09;;;;;;;18.90;12.63;;;;;;;21.39;100.00;101044.53;5014937;28;20080;-75
2022/07/31 05:54:34;;;;;;;17.63;12.77;;;;;;;20.81;100.00;100960.81;5019398;28;20021;-74
2022/07/31 05:57:38;;;;;;;16.57;12.43;;;;;;;21.40;100.00;100929.44;4984471;28;20041;-75
2022/07/31 06:00:04;;;;;;;23.07;12.57;;;;;;;21.73;100.00;100922.72;4967732;28;20038;-74
2022/07/31 06:02:37;;;;;;;17.60;10.80;;;;;;;21.81;100.00;100897.09;5000208;28;20116;-74
2022/07/31 06:05:17;;;;;;;13.40;11.43;;;;;;;22.01;100.00;100836.94;5013985;28;20029;-74
2022/07/31 06:07:43;;;;;;;15.07;10.63;;;;;;;22.08;100.00;100900.22;5002348;28;20034;-74
2022/07/31 06:10:09;;;;;;;13.98;9.43;;;;;;;22.09;100.00;100831.16;5013693;28;20026;-75
2022/07/31 06:12:34;;;;;;;16.90;11.40;;;;;;;21.96;100.00;100831.41;5018752;28;20032;-74
2022/07/31 06:15:00;;;;;;;13.23;9.07;;;;;;;22.86;100.00;100909.06;4997924;28;20277;-73
2022/07/31 06:17:39;;;;;;;14.43;8.57;;;;;;;22.65;100.00;100829.69;5011255;28;20033;-76
2022/07/31 06:20:10;;;;;;;13.77;9.77;;;;;;;22.75;100.00;100900.66;5015432;28;20029;-74
2022/07/31 06:22:38;;;;;;;18.90;10.18;;;;;;;23.00;100.00;100847.03;5014202;28;20056;-75
2022/07/31 06:25:05;;;;;;;12.63;7.78;;;;;;;23.62;100.00;100854.41;5000690;28;20116;-75
2022/07/31 06:27:31;;;;;;;14.88;8.80;;;;;;;24.23;100.00;100817.19;5009072;28;20582;-73
2022/07/31 06:29:56;;;;;;;12.25;8.65;;;;;;;24.08;100.00;100702.47;4994523;28;20049;-75
2022/07/31 06:32:22;;;;;;;10.90;9.25;;;;;;;23.87;100.00;100704.09;5016730;28;20037;-76
2022/07/31 06:34:48;;;;;;;15.73;9.85;;;;;;;23.67;100.00;100712.78;5016254;28;20116;-77
2022/07/31 06:37:14;;;;;;;11.60;6.63;;;;;;;23.89;100.00;100781.84;5016829;28;20038;-76
2022/07/31 06:39:39;;;;;;;10.80;7.30;;;;;;;24.00;100.00;100740.00;5001896;28;20025;-75
2022/07/31 06:42:24;;;;;;;12.43;7.55;;;;;;;24.00;100.00;100796.44;5018431;28;20080;-75
2022/07/31 06:45:02;;;;;;;14.77;10.07;;;;;;;22.99;100.00;100715.50;5019059;28;20051;-76
2022/07/31 06:47:54;;;;;;;15.43;10.52;;;;;;;22.62;100.00;100900.94;5011592;28;20141;-76
2022/07/31 06:50:46;;;;;;;11.20;6.55;;;;;;;23.77;100.00;100994.53;5013145;28;20798;-74
2022/07/31 06:53:30;;;;;;;19.43;10.03;;;;;;;23.58;100.00;100832.28;5007924;28;20044;-76
2022/07/31 06:55:55;;;;;;;16.55;8.55;;;;;;;24.18;100.00;100825.31;5016377;28;20041;-72
2022/07/31 06:58:21;;;;;;;10.52;7.53;;;;;;;24.83;100.00;100778.13;5000324;28;20084;-74
2022/07/31 07:00:46;;;;;;;13.63;9.57;;;;;;;24.11;100.00;100650.94;5015481;28;20029;-75
2022/07/31 07:03:12;;;;;;;14.60;9.35;;;;;;;23.32;100.00;100757.44;5014151;28;20037;-75
2022/07/31 07:05:37;;;;;;;11.75;9.15;;;;;;;22.95;100.00;100730.66;5000189;28;20045;-76
2022/07/31 07:08:03;;;;;;;15.77;8.30;;;;;;;23.27;100.00;100878.06;5016610;28;20049;-75
2022/07/31 07:10:30;;;;;;;16.55;10.18;;;;;;;22.85;100.00;100823.00;5012712;28;20644;-76
2022/07/31 07:12:58;;;;;;;16.60;9.07;;;;;;;22.76;100.00;100934.16;5013217;28;20394;-76
2022/07/31 07:15:24;;;;;;;16.98;8.75;;;;;;;23.70;100.00;100938.50;5015881;28;20037;-75
2022/07/31 07:17:50;;;;;;;16.02;9.65;;;;;;;23.09;100.00;100818.34;5016507;28;20113;-75
2022/07/31 07:20:21;;;;;;;12.63;9.07;;;;;;;22.77;100.00;100909.41;4998313;28;20038;-75
2022/07/31 07:22:46;;;;;;;12.15;7.28;;;;;;;23.75;100.00;100961.25;5012867;28;20479;-75
2022/07/31 07:25:19;;;;;;;12.02;7.55;;;;;;;23.99;100.00;100899.22;5015134;28;20395;-75
2022/07/31 07:27:45;;;;;;;11.57;6.15;;;;;;;24.55;99.99;100794.75;5015315;28;20029;-75
2022/07/31 07:30:11;;;;;;;13.23;7.25;;;;;;;24.27;100.00;100752.88;4998367;28;20132;-76
2022/07/31 07:32:37;;;;;;;9.73;7.03;;;;;;;24.13;100.00;100774.25;5018176;28;20183;-75
2022/07/31 07:35:03;;;;;;;9.15;6.18;;;;;;;24.61;99.45;100824.56;5001639;28;20057;-76
2022/07/31 07:37:54;;;;;;;11.48;6.72;;;;;;;23.83;99.05;100709.22;5018819;28;20469;-76
2022/07/31 07:40:20;;;;;;;8.82;6.43;;;;;;;23.18;100.00;100667.94;5005431;28;20156;-75
2022/07/31 07:42:47;;;;;;;11.00;7.47;;;;;;;22.72;100.00;100709.84;5001902;28;20036;-76
2022/07/31 07:45:13;;;;;;;10.73;7.00;;;;;;;22.87;100.00;100853.53;5019579;28;20038;-76
2022/07/31 07:47:38;;;;;;;12.38;6.95;;;;;;;23.75;100.00;100908.63;5022796;28;20051;-77
2022/07/31 07:50:06;;;;;;;9.93;6.22;;;;;;;24.37;98.12;100817.66;5014470;28;20034;-77
2022/07/31 07:52:50;;;;;;;8.50;6.57;;;;;;;22.63;100.00;100731.16;5021194;28;20419;-77
2022/07/31 07:55:33;;;;;;;10.32;5.78;;;;;;;23.28;100.00;100895.22;5024465;28;20036;-77
2022/07/31 07:58:18;;;;;;;;;;;;;;;23.46;100.00;100769.69;5007776;28;20049;-77
2022/07/31 08:01:04;;;;;;;;;;;;;;;23.33;100.00;100699.19;5018360;28;20341;-77
2022/07/31 08:03:30;;;;;;;10.50;5.82;;;;;;;23.23;100.00;100765.22;5023841;28;19917;-76
2022/07/31 08:05:56;;;;;;;12.05;5.10;;;;;;;23.44;100.00;100864.47;5004240;28;20402;-78
2022/07/31 08:08:21;;;;;;;10.52;4.85;;;;;;;23.28;100.00;100802.63;5018686;28;20100;-76
2022/07/31 08:10:47;;;;;;;11.70;5.30;;;;;;;23.08;100.00;100708.59;5020908;28;20028;-76
2022/07/31 08:13:26;;;;;;;13.40;5.63;;;;;;;22.57;100.00;100767.50;5008922;28;20021;-76
2022/07/31 08:16:21;;;;;;;11.18;4.75;;;;;;;22.25;95.47;100534.09;5019359;28;20590;-76
2022/07/31 08:18:50;;;;;;;7.80;3.50;;;;;;;22.05;99.73;100590.75;4998014;28;20065;-77
2022/07/31 08:21:16;;;;;;;6.65;3.45;;;;;;;22.13;100.00;100685.53;5016006;28;20037;-76
2022/07/31 08:23:41;;;;;;;7.47;3.60;;;;;;;22.07;100.00;100649.25;5011585;28;20037;-75
2022/07/31 08:26:07;;;;;;;7.80;3.20;;;;;;;21.57;100.00;100602.84;4996820;28;20475;-75
2022/07/31 08:28:36;;;;;;;5.67;3.43;;;;;;;21.87;100.00;100780.13;5020820;28;20037;-75
2022/07/31 08:31:02;;;;;;;7.95;3.05;;;;;;;21.50;94.75;100480.75;5000043;28;20284;-75
2022/07/31 08:33:29;;;;;;;4.40;3.00;;;;;;;21.95;100.00;100715.59;5020021;28;20112;-75
2022/07/31 08:35:56;;;;;;;5.60;2.70;;;;;;;22.23;93.63;100612.34;5017727;28;20061;-76
2022/07/31 08:38:21;;;;;;;7.90;3.70;;;;;;;21.57;97.13;100573.78;5002297;28;20462;-75
2022/07/31 08:41:25;;;;;;;10.25;3.83;;;;;;;21.69;98.35;100622.66;4997596;28;20493;-75
2022/07/31 08:43:51;;;;;;;9.88;2.97;;;;;;;21.36;100.00;100664.00;4995121;28;20038;-75
2022/07/31 08:46:17;;;;;;;10.53;3.93;;;;;;;21.14;97.99;100560.56;4996054;28;20088;-75
2022/07/31 08:48:45;;;;;;;7.18;2.90;;;;;;;21.10;96.59;100551.28;4997516;28;20034;-76
2022/07/31 08:51:11;;;;;;;5.47;2.97;;;;;;;20.76;99.23;100556.44;5016526;28;20625;-74
2022/07/31 08:54:07;;;;;;;;;;;;;;;21.06;100.00;100698.28;4985707;28;20053;-74
2022/07/31 08:56:34;;;;;;;4.63;2.60;;;;;;;21.12;100.00;100760.84;5019038;28;19940;-76
2022/07/31 08:59:00;;;;;;;8.90;2.65;;;;;;;21.18;100.00;100732.78;5000356;28;20025;-76
2022/07/31 09:01:26;;;;;;;6.35;2.45;;;;;;;21.82;100.00;100798.19;5018519;28;20386;-75
2022/07/31 09:03:53;;;;;;;9.70;3.08;;;;;;;22.01;98.94;100771.72;5017776;28;20104;-76
2022/07/31 09:06:19;;;;;;;6.82;3.10;;;;;;;21.85;96.50;100698.00;5017724;28;20228;-77
2022/07/31 09:08:44;;;;;;;6.50;2.65;;;;;;;22.18;96.23;100748.19;4997071;28;20616;-76
2022/07/31 09:11:12;;;;;;;5.78;2.63;;;;;;;22.29;97.91;100796.31;5016125;28;20590;-75
2022/07/31 09:13:53;;;;;;;10.32;3.00;;;;;;;22.67;97.78;100833.00;5018959;28;20096;-76
2022/07/31 09:16:44;;;;;;;4.65;2.50;;;;;;;22.79;88.67;100677.84;5014384;28;20107;-75
2022/07/31 09:19:09;;;;;;;4.25;2.67;;;;;;;22.82;86.58;100643.88;5013411;28;20034;-76
2022/07/31 09:21:40;;;;;;;5.73;2.70;;;;;;;22.36;92.14;100694.72;5002355;28;20028;-75
2022/07/31 09:24:07;;;;;;;6.25;3.15;;;;;;;22.06;93.88;100657.66;5015778;28;20613;-74
2022/07/31 09:26:33;;;;;;;4.75;3.05;;;;;;;22.06;89.03;100573.41;5018851;28;20033;-76
2022/07/31 09:29:00;;;;;;;4.95;2.83;;;;;;;22.12;93.75;100690.16;4983356;28;1036168;-75
2022/07/31 09:31:31;;;;;;;8.25;2.50;;;;;;;22.55;97.76;100829.50;4998455;28;20033;-76
2022/07/31 09:34:04;;;;;;;4.68;2.83;;;;;;;22.95;89.65;100725.22;5016818;28;20124;-75
2022/07/31 09:36:30;;;;;;;4.55;2.55;;;;;;;23.35;86.74;100729.75;5010061;28;20033;-75
2022/07/31 09:39:12;;;;;;;6.93;2.70;;;;;;;23.87;80.39;100674.13;5003962;28;20040;-75
2022/07/31 09:41:56;;;;;;;7.53;2.50;;;;;;;24.36;73.06;100557.66;5016039;28;20052;-76
2022/07/31 09:44:45;;;;;;;6.85;2.90;;;;;;;23.91;70.90;100419.00;5013204;28;20033;-76
2022/07/31 09:47:26;;;;;;;4.78;2.85;;;;;;;23.83;73.99;100534.75;5001092;28;20042;-75
2022/07/31 09:49:58;;;;;;;5.70;2.85;;;;;;;24.18;72.49;100547.13;5001362;28;20049;-75
2022/07/31 09:52:25;;;;;;;5.10;2.50;;;;;;;24.43;69.65;100506.44;5018652;28;20033;-75
2022/07/31 09:55:03;;;;;;;9.45;2.53;;;;;;;24.91;69.12;100584.88;5019425;28;20095;-75
2022/07/31 09:57:28;;;;;;;5.38;2.55;;;;;;;24.26;63.10;100185.81;5010553;28;20029;-75
2022/07/31 09:59:56;;;;;;;9.13;3.47;;;;;;;24.50;68.79;100519.88;5016315;28;20017;-75
2022/07/31 10:02:26;;;;;;;6.28;2.80;;;;;;;25.15;67.78;100588.06;5018303;28;20100;-75
2022/07/31 10:04:56;;;;;;;6.75;2.47;;;;;;;25.20;63.64;100430.50;5001636;28;20041;-75
2022/07/31 10:07:25;;;;;;;7.15;2.67;;;;;;;25.29;61.24;100332.47;5018051;28;20038;-76
2022/07/31 10:09:55;;;;;;;9.30;2.65;;;;;;;25.91;61.12;100494.69;5017391;28;20032;-75
2022/07/31 10:12:41;;;;;;;3.33;2.50;;;;;;;24.61;59.44;100149.66;5000922;28;20116;-75
2022/07/31 10:15:10;;;;;;;3.80;2.40;;;;;;;25.27;60.56;100395.56;5016035;28;20099;-76
2022/07/31 10:17:42;;;;;;;5.35;3.05;;;;;;;24.81;60.73;100304.44;5019393;28;20104;-76
2022/07/31 10:20:27;;;;;;;3.70;2.40;;;;;;;25.91;59.67;100481.00;5018496;28;20056;-75
2022/07/31 10:23:14;;;;;;;5.75;2.67;;;;;;;26.14;57.56;100391.31;5013779;28;20033;-75
2022/07/31 10:25:45;;;;;;;3.45;2.20;;;;;;;25.92;59.52;100460.78;5019323;28;20429;-76
2022/07/31 10:28:12;;;;;;;6.95;2.50;;;;;;;26.19;59.77;100501.56;5016540;28;20068;-77
2022/07/31 10:30:37;;;;;;;7.60;3.28;;;;;;;25.62;59.76;100380.34;5013459;28;20076;-76
2022/07/31 10:33:05;;;;;;;4.55;3.10;;;;;;;25.37;61.14;100388.50;4997471;28;20438;-76
2022/07/31 10:35:45;;;;;;;5.55;2.30;;;;;;;24.78;67.65;100535.13;5008671;28;20109;-75
2022/07/31 10:38:29;;;;;;;3.38;2.28;;;;;;;25.23;65.19;100550.16;5000854;28;20032;-75
2022/07/31 10:41:14;;;;;;;;;;;;;;;25.86;62.54;100568.50;5015343;28;20117;-76
2022/07/31 10:43:50;;;;;;;6.78;2.28;;;;;;;25.55;61.95;100458.22;5000477;28;19917;-76
2022/07/31 10:46:28;;;;;;;7.50;2.55;;;;;;;25.74;58.39;100346.44;5000640;28;20128;-76
2022/07/31 10:49:13;;;;;;;3.85;2.22;;;;;;;25.95;56.23;100246.94;5015992;28;20072;-75
2022/07/31 10:51:57;;;;;;;5.47;2.03;;;;;;;27.08;54.65;100408.88;5015881;28;20095;-76
2022/07/31 10:54:46;;;;;;;6.97;2.88;;;;;;;26.74;52.92;100214.34;5015689;28;20091;-76
2022/07/31 10:57:32;;;;;;;2.55;2.10;;;;;;;26.79;52.13;100202.56;5013331;28;20203;-76
2022/07/31 11:00:19;;;;;;;4.78;1.77;;;;;;;26.74;52.39;100204.22;5019333;28;20114;-76
2022/07/31 11:03:13;;;;;;;4.00;1.85;;;;;;;26.03;52.75;100075.97;5003437;28;20042;-76
2022/07/31 11:05:58;;;;;;;2.28;1.48;;;;;;;25.61;51.50;99918.69;5016977;28;20091;-76
2022/07/31 11:08:43;;;;;;;2.10;1.90;;;;;;;25.75;54.43;100171.19;5015761;28;20048;-75
2022/07/31 11:11:35;;;;;;;6.97;1.88;;;;;;;25.31;54.02;100073.50;5019080;28;20034;-75
2022/07/31 11:14:39;;;;;;;4.10;2.17;;;;;;;26.13;51.37;100078.66;5005436;28;20072;-76
2022/07/31 11:17:35;;;;;;;8.32;1.83;;;;;;;27.29;50.12;100241.66;5021159;28;20075;-75
2022/07/31 11:20:24;;;;;;;3.25;1.80;;;;;;;27.26;47.50;99971.78;5017023;28;20052;-76
2022/07/31 11:23:02;;;;;;;4.57;1.90;;;;;;;27.23;47.92;100010.72;5013762;28;20754;-76
2022/07/31 11:25:30;;;;;;;3.22;2.05;;;;;;;26.88;48.53;99914.09;5018233;28;20092;-75
2022/07/31 11:27:57;;;;;;;1.90;1.70;;;;;;;25.57;51.60;99973.13;5016825;28;20025;-76
2022/07/31 11:30:23;;;;;;;10.27;2.15;;;;;;;26.15;52.30;100133.06;5014110;28;20033;-75